sensor_id;sensor_type;location;lat;lon;timestamp;pressure;altitude;pressure_sealevel;temperature;humidity
75188;BME280;63762;51.334;22.108;2024-01-07T00:04:05;101578.95;;;-3.45;73.61
75188;BME280;63762;51.334;22.108;2024-01-07T00:14:12;101568.40;;;-3.42;73.25
75188;BME280;63762;51.334;22.108;2024-01-07T00:24:19;101573.69;;;-3.45;73.15
75188;BME280;63762;51.334;22.108;2024-01-07T00:34:26;101572.91;;;-3.55;72.90
75188;BME280;63762;51.334;22.108;2024-01-07T00:44:33;101586.20;;;-3.71;73.41
75188;BME280;63762;51.334;22.108;2024-01-07T00:54:40;101580.18;;;-3.85;73.63
75188;BME280;63762;51.334;22.108;2024-01-07T01:04:48;101586.23;;;-3.77;74.10
75188;BME280;63762;51.334;22.108;2024-01-07T01:14:55;101595.96;;;-3.87;74.44
75188;BME280;63762;51.334;22.108;2024-01-07T01:25:03;101586.30;;;-3.86;74.06
75188;BME280;63762;51.334;22.108;2024-01-07T01:35:09;101574.04;;;-3.84;73.86
75188;BME280;63762;51.334;22.108;2024-01-07T01:45:16;101581.96;;;-3.90;73.56
75188;BME280;63762;51.334;22.108;2024-01-07T01:55:24;101573.21;;;-3.94;73.94
75188;BME280;63762;51.334;22.108;2024-01-07T02:05:31;101574.09;;;-3.93;72.82
75188;BME280;63762;51.334;22.108;2024-01-07T02:15:38;101568.02;;;-3.98;72.31
75188;BME280;63762;51.334;22.108;2024-01-07T02:25:45;101565.41;;;-4.01;72.88
75188;BME280;63762;51.334;22.108;2024-01-07T02:35:52;101580.31;;;-4.05;72.50
75188;BME280;63762;51.334;22.108;2024-01-07T02:45:59;101572.52;;;-4.18;73.18
75188;BME280;63762;51.334;22.108;2024-01-07T02:56:06;101571.64;;;-4.14;73.04
75188;BME280;63762;51.334;22.108;2024-01-07T03:06:13;101565.49;;;-4.13;72.98
75188;BME280;63762;51.334;22.108;2024-01-07T03:16:25;101561.15;;;-4.17;73.16
75188;BME280;63762;51.334;22.108;2024-01-07T03:26:30;101565.56;;;-4.25;73.15
75188;BME280;63762;51.334;22.108;2024-01-07T03:36:35;101566.37;;;-4.11;72.92
75188;BME280;63762;51.334;22.108;2024-01-07T03:46:42;101566.46;;;-4.26;72.81
75188;BME280;63762;51.334;22.108;2024-01-07T03:56:49;101564.61;;;-4.14;72.54
75188;BME280;63762;51.334;22.108;2024-01-07T04:06:56;101584.89;;;-4.35;72.94
75188;BME280;63762;51.334;22.108;2024-01-07T04:17:03;101590.08;;;-4.23;72.59
75188;BME280;63762;51.334;22.108;2024-01-07T04:27:11;101590.14;;;-4.35;72.73
75188;BME280;63762;51.334;22.108;2024-01-07T04:37:18;101595.44;;;-4.46;73.20
75188;BME280;63762;51.334;22.108;2024-01-07T04:47:29;101607.74;;;-4.52;73.75
75188;BME280;63762;51.334;22.108;2024-01-07T04:57:32;101605.94;;;-4.44;74.03
75188;BME280;63762;51.334;22.108;2024-01-07T05:07:39;101615.57;;;-4.40;73.91
75188;BME280;63762;51.334;22.108;2024-01-07T05:17:46;101611.19;;;-4.44;74.09
75188;BME280;63762;51.334;22.108;2024-01-07T05:27:54;101621.66;;;-4.38;74.53
75188;BME280;63762;51.334;22.108;2024-01-07T05:38:01;101624.35;;;-4.53;74.84
75188;BME280;63762;51.334;22.108;2024-01-07T05:48:08;101639.24;;;-4.51;75.35
75188;BME280;63762;51.334;22.108;2024-01-07T05:58:15;101647.95;;;-4.46;75.06
75188;BME280;63762;51.334;22.108;2024-01-07T06:08:22;101645.35;;;-4.53;74.33
75188;BME280;63762;51.334;22.108;2024-01-07T06:18:29;101660.25;;;-4.54;73.84
75188;BME280;63762;51.334;22.108;2024-01-07T06:28:36;101669.03;;;-4.62;73.93
75188;BME280;63762;51.334;22.108;2024-01-07T06:38:43;101663.77;;;-4.59;73.90
75188;BME280;63762;51.334;22.108;2024-01-07T06:51:56;101684.82;;;-4.84;73.29
75188;BME280;63762;51.334;22.108;2024-01-07T07:02:03;101687.45;;;-4.90;73.26
75188;BME280;63762;51.334;22.108;2024-01-07T07:12:12;101692.73;;;-5.03;72.88
75188;BME280;63762;51.334;22.108;2024-01-07T07:22:18;101712.84;;;-4.95;73.30
75188;BME280;63762;51.334;22.108;2024-01-07T07:32:25;101709.33;;;-5.00;72.70
75188;BME280;63762;51.334;22.108;2024-01-07T07:42:32;101725.07;;;-5.03;73.05
75188;BME280;63762;51.334;22.108;2024-01-07T07:52:41;101727.73;;;-5.18;73.12
75188;BME280;63762;51.334;22.108;2024-01-07T08:02:49;101739.92;;;-4.93;72.68
75188;BME280;63762;51.334;22.108;2024-01-07T08:12:53;101739.91;;;-4.87;72.56
75188;BME280;63762;51.334;22.108;2024-01-07T08:23:00;101756.55;;;-5.01;72.74
75188;BME280;63762;51.334;22.108;2024-01-07T08:33:08;101764.42;;;-4.94;73.00
75188;BME280;63762;51.334;22.108;2024-01-07T08:43:15;101780.16;;;-5.03;73.79
75188;BME280;63762;51.334;22.108;2024-01-07T08:53:22;101777.52;;;-5.06;74.72
75188;BME280;63762;51.334;22.108;2024-01-07T09:03:29;101779.28;;;-5.15;74.76
75188;BME280;63762;51.334;22.108;2024-01-07T09:13:37;101770.50;;;-5.49;75.38
75188;BME280;63762;51.334;22.108;2024-01-07T09:23:44;101780.99;;;-5.46;75.16
75188;BME280;63762;51.334;22.108;2024-01-07T09:33:51;101782.74;;;-5.42;74.91
75188;BME280;63762;51.334;22.108;2024-01-07T09:43:58;101772.28;;;-5.36;74.53
75188;BME280;63762;51.334;22.108;2024-01-07T09:54:08;101767.02;;;-5.42;73.33
75188;BME280;63762;51.334;22.108;2024-01-07T10:04:17;101759.98;;;-5.73;73.50
75188;BME280;63762;51.334;22.108;2024-01-07T10:14:19;101756.52;;;-5.48;73.67
75188;BME280;63762;51.334;22.108;2024-01-07T10:24:27;101745.16;;;-5.54;73.12
75188;BME280;63762;51.334;22.108;2024-01-07T10:34:35;101757.35;;;-5.77;74.50
75188;BME280;63762;51.334;22.108;2024-01-07T10:44:40;101751.27;;;-5.63;74.15
75188;BME280;63762;51.334;22.108;2024-01-07T10:54:48;101760.04;;;-5.23;73.81
75188;BME280;63762;51.334;22.108;2024-01-07T11:15:08;101755.58;;;-5.78;73.25
75188;BME280;63762;51.334;22.108;2024-01-07T11:45:35;101765.27;;;-5.46;73.46
75188;BME280;63762;51.334;22.108;2024-01-07T11:55:36;101772.28;;;-5.33;73.04
75188;BME280;63762;51.334;22.108;2024-01-07T12:05:38;101772.25;;;-5.60;73.33
75188;BME280;63762;51.334;22.108;2024-01-07T12:15:45;101779.19;;;-5.68;73.21
75188;BME280;63762;51.334;22.108;2024-01-07T12:25:53;101771.38;;;-5.54;73.11
75188;BME280;63762;51.334;22.108;2024-01-07T12:36:00;101779.20;;;-5.66;72.21
75188;BME280;63762;51.334;22.108;2024-01-07T12:46:06;101779.23;;;-5.57;72.16
75188;BME280;63762;51.334;22.108;2024-01-07T12:56:13;101788.81;;;-5.61;71.23
75188;BME280;63762;51.334;22.108;2024-01-07T13:06:21;101786.20;;;-5.58;71.57
75188;BME280;63762;51.334;22.108;2024-01-07T13:16:28;101795.83;;;-5.58;70.77
75188;BME280;63762;51.334;22.108;2024-01-07T13:26:35;101826.45;;;-5.44;70.76
75188;BME280;63762;51.334;22.108;2024-01-07T13:36:43;101825.53;;;-5.52;69.53
75188;BME280;63762;51.334;22.108;2024-01-07T13:46:49;101828.05;;;-5.89;69.65
75188;BME280;63762;51.334;22.108;2024-01-07T13:56:56;101850.73;;;-5.93;69.87
75188;BME280;63762;51.334;22.108;2024-01-07T14:07:03;101853.30;;;-6.00;71.07
75188;BME280;63762;51.334;22.108;2024-01-07T14:17:11;101871.59;;;-6.14;71.16
75188;BME280;63762;51.334;22.108;2024-01-07T14:27:18;101872.41;;;-6.22;70.94
75188;BME280;63762;51.334;22.108;2024-01-07T14:37:25;101876.64;;;-6.38;70.52
75188;BME280;63762;51.334;22.108;2024-01-07T14:47:32;101894.04;;;-6.46;70.34
75188;BME280;63762;51.334;22.108;2024-01-07T14:57:40;101897.30;;;-6.72;69.02
75188;BME280;63762;51.334;22.108;2024-01-07T15:07:46;101893.80;;;-6.76;69.33
75188;BME280;63762;51.334;22.108;2024-01-07T15:17:54;101910.31;;;-6.78;67.72
75188;BME280;63762;51.334;22.108;2024-01-07T15:28:01;101921.55;;;-6.90;66.76
75188;BME280;63762;51.334;22.108;2024-01-07T15:38:08;101929.88;;;-7.27;66.96
75188;BME280;63762;51.334;22.108;2024-01-07T15:48:15;101939.52;;;-7.22;66.62
75188;BME280;63762;51.334;22.108;2024-01-07T15:58:22;101957.87;;;-7.17;66.40
75188;BME280;63762;51.334;22.108;2024-01-07T16:08:31;101967.23;;;-7.36;66.90
75188;BME280;63762;51.334;22.108;2024-01-07T16:18:37;101991.33;;;-7.58;67.08
75188;BME280;63762;51.334;22.108;2024-01-07T16:28:44;102000.02;;;-7.57;68.03
75188;BME280;63762;51.334;22.108;2024-01-07T16:38:51;102014.83;;;-7.58;67.64
75188;BME280;63762;51.334;22.108;2024-01-07T16:48:58;102019.99;;;-7.62;68.48
75188;BME280;63762;51.334;22.108;2024-01-07T16:59:05;102034.06;;;-7.51;68.43
75188;BME280;63762;51.334;22.108;2024-01-07T17:09:12;102020.27;;;-7.41;68.41
75188;BME280;63762;51.334;22.108;2024-01-07T17:19:19;102028.60;;;-7.69;69.05
75188;BME280;63762;51.334;22.108;2024-01-07T17:29:27;102033.83;;;-7.69;69.30
75188;BME280;63762;51.334;22.108;2024-01-07T17:39:34;102044.27;;;-7.69;68.68
75188;BME280;63762;51.334;22.108;2024-01-07T17:49:41;102058.30;;;-7.61;68.57
75188;BME280;63762;51.334;22.108;2024-01-07T17:59:48;102066.70;;;-7.80;69.26
75188;BME280;63762;51.334;22.108;2024-01-07T18:09:55;102077.58;;;-8.08;70.38
75188;BME280;63762;51.334;22.108;2024-01-07T18:20:03;102097.37;;;-8.19;70.99
75188;BME280;63762;51.334;22.108;2024-01-07T18:30:10;102101.02;;;-8.11;71.50
75188;BME280;63762;51.334;22.108;2024-01-07T18:40:17;102121.64;;;-8.26;71.46
75188;BME280;63762;51.334;22.108;2024-01-07T18:50:24;102119.72;;;-8.36;71.18
75188;BME280;63762;51.334;22.108;2024-01-07T19:00:31;102132.16;;;-8.20;70.87
75188;BME280;63762;51.334;22.108;2024-01-07T19:10:38;102134.63;;;-8.29;69.50
75188;BME280;63762;51.334;22.108;2024-01-07T19:20:45;102145.16;;;-8.25;68.83
75188;BME280;63762;51.334;22.108;2024-01-07T19:30:52;102143.49;;;-8.18;68.70
75188;BME280;63762;51.334;22.108;2024-01-07T19:41:00;102141.42;;;-8.39;68.64
75188;BME280;63762;51.334;22.108;2024-01-07T19:51:08;102154.24;;;-8.49;68.53
75188;BME280;63762;51.334;22.108;2024-01-07T20:01:14;102157.74;;;-8.47;68.83
75188;BME280;63762;51.334;22.108;2024-01-07T20:11:23;102174.88;;;-8.60;68.34
75188;BME280;63762;51.334;22.108;2024-01-07T20:21:28;102183.66;;;-8.56;68.50
75188;BME280;63762;51.334;22.108;2024-01-07T20:31:35;102199.98;;;-8.65;68.50
75188;BME280;63762;51.334;22.108;2024-01-07T20:41:44;102203.70;;;-8.54;68.51
75188;BME280;63762;51.334;22.108;2024-01-07T20:51:50;102208.83;;;-8.58;68.03
75188;BME280;63762;51.334;22.108;2024-01-07T21:01:58;102215.63;;;-8.65;67.80
75188;BME280;63762;51.334;22.108;2024-01-07T21:12:04;102218.27;;;-8.63;68.78
75188;BME280;63762;51.334;22.108;2024-01-07T21:22:11;102230.13;;;-8.77;67.78
75188;BME280;63762;51.334;22.108;2024-01-07T21:32:18;102240.52;;;-8.79;68.34
75188;BME280;63762;51.334;22.108;2024-01-07T21:42:26;102239.74;;;-8.75;68.07
75188;BME280;63762;51.334;22.108;2024-01-07T21:52:33;102249.27;;;-8.77;68.37
75188;BME280;63762;51.334;22.108;2024-01-07T22:02:40;102262.55;;;-8.66;68.57
75188;BME280;63762;51.334;22.108;2024-01-07T22:12:47;102270.24;;;-8.72;67.93
75188;BME280;63762;51.334;22.108;2024-01-07T22:22:54;102274.63;;;-8.70;66.74
75188;BME280;63762;51.334;22.108;2024-01-07T22:33:01;102274.96;;;-8.56;67.98
75188;BME280;63762;51.334;22.108;2024-01-07T22:43:09;102290.39;;;-8.65;67.46
75188;BME280;63762;51.334;22.108;2024-01-07T22:53:16;102285.24;;;-8.62;66.67
75188;BME280;63762;51.334;22.108;2024-01-07T23:03:23;102303.67;;;-8.55;66.14
75188;BME280;63762;51.334;22.108;2024-01-07T23:13:30;102316.57;;;-8.61;66.80
75188;BME280;63762;51.334;22.108;2024-01-07T23:23:37;102330.51;;;-8.59;66.72
75188;BME280;63762;51.334;22.108;2024-01-07T23:33:44;102337.62;;;-8.53;66.19
75188;BME280;63762;51.334;22.108;2024-01-07T23:43:52;102341.62;;;-8.67;65.73
75188;BME280;63762;51.334;22.108;2024-01-07T23:53:58;102347.20;;;-8.52;66.27
